Time,TemperatureF,DewpointF,PressureIn,WindDirection,WindDirectionDegrees,WindSpeedMPH,WindSpeedGustMPH,Humidity,HourlyPrecipIn,Conditions,Clouds,dailyrainin,SoftwareType,DateUTC
2013-10-02 00:01:00,58.6,58.3,29.95,SSE,157,0.0,-999.0,99,-99.99,,,0.00,Acu-Link.com,2013-10-02 04:01:00,
2013-10-02 00:16:00,58.3,58.0,29.94,SSE,157,0.0,-999.0,99,-99.99,,,0.00,Acu-Link.com,2013-10-02 04:16:00,
2013-10-02 00:31:00,57.9,57.6,29.94,SSE,157,0.0,-999.0,99,-99.99,,,0.00,Acu-Link.com,2013-10-02 04:31:00,
2013-10-02 00:47:00,57.7,57.4,29.94,SSE,157,0.0,-999.0,99,-99.99,,,0.00,Acu-Link.com,2013-10-02 04:47:00,
2013-10-02 01:02:00,57.4,57.1,29.94,SSE,157,0.0,-999.0,99,-99.99,,,0.00,Acu-Link.com,2013-10-02 05:02:00,
2013-10-02 01:17:00,57.4,57.1,29.94,SSE,157,0.0,-999.0,99,-99.99,,,0.00,Acu-Link.com,2013-10-02 05:17:00,
2013-10-02 01:32:00,57.0,56.7,29.94,SSE,157,0.0,-999.0,99,-99.99,,,0.00,Acu-Link.com,2013-10-02 05:32:00,
2013-10-02 01:48:00,56.8,56.5,29.95,SSE,157,0.0,-999.0,99,-99.99,,,0.00,Acu-Link.com,2013-10-02 05:48:00,
2013-10-02 02:03:00,56.8,56.5,29.94,SSE,157,0.0,-999.0,99,-99.99,,,0.00,Acu-Link.com,2013-10-02 06:03:00,
2013-10-02 02:18:00,56.8,56.5,29.94,SSE,157,0.0,-999.0,99,-99.99,,,0.00,Acu-Link.com,2013-10-02 06:18:00,
2013-10-02 02:33:00,56.7,56.4,29.94,SSE,157,0.0,-999.0,99,-99.99,,,0.00,Acu-Link.com,2013-10-02 06:33:00,
2013-10-02 02:48:00,56.5,56.2,29.94,SSE,157,0.0,-999.0,99,-99.99,,,0.00,Acu-Link.com,2013-10-02 06:48:00,
2013-10-02 03:06:00,56.5,56.2,29.94,SSE,157,0.0,-999.0,99,-99.99,,,0.00,Acu-Link.com,2013-10-02 07:06:00,
2013-10-02 03:21:00,56.3,56.0,29.94,SSE,157,0.0,-999.0,99,-99.99,,,0.00,Acu-Link.com,2013-10-02 07:21:00,
2013-10-02 03:37:00,56.1,55.8,29.94,SSE,157,0.0,-999.0,99,-99.99,,,0.00,Acu-Link.com,2013-10-02 07:37:00,
2013-10-02 03:52:00,56.1,55.8,29.93,SSE,157,0.0,-999.0,99,-99.99,,,0.00,Acu-Link.com,2013-10-02 07:52:00,
2013-10-02 04:07:00,55.8,55.5,29.93,SSE,157,0.0,-999.0,99,-99.99,,,0.00,Acu-Link.com,2013-10-02 08:07:00,
2013-10-02 04:23:00,55.6,55.3,29.94,SSE,157,0.0,-999.0,99,-99.99,,,0.00,Acu-Link.com,2013-10-02 08:23:00,
2013-10-02 04:38:00,55.6,55.3,29.93,SSE,157,0.0,-999.0,99,-99.99,,,0.00,Acu-Link.com,2013-10-02 08:38:00,
2013-10-02 04:53:00,55.4,55.1,29.93,SSE,157,0.0,-999.0,99,-99.99,,,0.00,Acu-Link.com,2013-10-02 08:53:00,
2013-10-02 05:08:00,55.2,54.9,29.93,SSE,157,0.0,-999.0,99,-99.99,,,0.00,Acu-Link.com,2013-10-02 09:08:00,
2013-10-02 05:23:00,55.0,54.7,29.93,SSE,157,0.0,-999.0,99,-99.99,,,0.00,Acu-Link.com,2013-10-02 09:23:00,
2013-10-02 05:38:00,54.0,53.7,29.94,South,180,0.0,-999.0,99,-99.99,,,0.00,Acu-Link.com,2013-10-02 09:38:00,
2013-10-02 05:53:00,54.0,53.7,29.94,South,180,0.0,-999.0,99,-99.99,,,0.00,Acu-Link.com,2013-10-02 09:53:00,
2013-10-02 06:09:00,54.0,53.7,29.94,South,180,0.0,-999.0,99,-99.99,,,0.00,Acu-Link.com,2013-10-02 10:09:00,
2013-10-02 06:24:00,53.8,53.5,29.95,South,180,0.0,-999.0,99,-99.99,,,0.00,Acu-Link.com,2013-10-02 10:24:00,
2013-10-02 06:39:00,53.6,53.3,29.95,South,180,0.0,-999.0,99,-99.99,,,0.00,Acu-Link.com,2013-10-02 10:39:00,
2013-10-02 06:54:00,53.4,53.1,29.95,South,180,0.0,-999.0,99,-99.99,,,0.00,Acu-Link.com,2013-10-02 10:54:00,
2013-10-02 07:10:00,53.2,52.9,29.96,South,180,0.0,-999.0,99,-99.99,,,0.00,Acu-Link.com,2013-10-02 11:10:00,
2013-10-02 07:25:00,52.9,52.6,29.96,South,180,0.0,-999.0,99,-99.99,,,0.00,Acu-Link.com,2013-10-02 11:25:00,
2013-10-02 07:40:00,53.1,52.8,29.97,South,180,0.0,-999.0,99,-99.99,,,0.00,Acu-Link.com,2013-10-02 11:40:00,
2013-10-02 07:55:00,53.4,53.1,29.97,South,180,0.0,-999.0,99,-99.99,,,0.00,Acu-Link.com,2013-10-02 11:55:00,
2013-10-02 08:10:00,53.8,53.5,29.97,South,180,0.0,-999.0,99,-99.99,,,0.00,Acu-Link.com,2013-10-02 12:10:00,
2013-10-02 08:26:00,54.7,54.4,29.98,South,180,0.0,-999.0,99,-99.99,,,0.00,Acu-Link.com,2013-10-02 12:26:00,
2013-10-02 08:41:00,55.9,55.6,29.98,South,180,0.0,-999.0,99,-99.99,,,0.00,Acu-Link.com,2013-10-02 12:41:00,
2013-10-02 08:56:00,57.6,57.3,29.98,South,180,0.0,-999.0,99,-99.99,,,0.00,Acu-Link.com,2013-10-02 12:56:00,
2013-10-02 09:11:00,59.9,59.6,29.99,South,180,0.0,-999.0,99,-99.99,,,0.00,Acu-Link.com,2013-10-02 13:11:00,
2013-10-02 09:26:00,61.9,61.6,29.99,SW,225,0.0,-999.0,99,-99.99,,,0.00,Acu-Link.com,2013-10-02 13:26:00,
2013-10-02 09:42:00,63.9,63.6,29.99,SW,225,0.0,-999.0,99,-99.99,,,0.00,Acu-Link.com,2013-10-02 13:42:00,
2013-10-02 09:57:00,66.7,64.9,30.00,NNW,337,1.7,-999.0,94,-99.99,,,0.00,Acu-Link.com,2013-10-02 13:57:00,
2013-10-02 10:12:00,68.5,64.5,29.99,North,0,3.2,-999.0,87,-99.99,,,0.00,Acu-Link.com,2013-10-02 14:12:00,
2013-10-02 10:27:00,71.4,64.9,30.00,North,0,3.2,-999.0,80,-99.99,,,0.00,Acu-Link.com,2013-10-02 14:27:00,
2013-10-02 10:42:00,74.3,65.1,29.99,West,270,2.2,-999.0,73,-99.99,,,0.00,Acu-Link.com,2013-10-02 14:42:00,
2013-10-02 10:58:00,75.6,65.1,29.99,North,0,2.2,-999.0,70,-99.99,,,0.00,Acu-Link.com,2013-10-02 14:58:00,
2013-10-02 11:13:00,77.0,64.3,29.99,NNE,22,2.7,-999.0,65,-99.99,,,0.00,Acu-Link.com,2013-10-02 15:13:00,
2013-10-02 11:28:00,78.1,64.5,29.99,ENE,67,3.2,-999.0,63,-99.99,,,0.00,Acu-Link.com,2013-10-02 15:28:00,
2013-10-02 11:43:00,78.1,64.0,29.98,NNW,337,2.2,-999.0,62,-99.99,,,0.00,Acu-Link.com,2013-10-02 15:43:00,
2013-10-02 11:58:00,79.0,62.9,29.98,North,0,1.7,-999.0,58,-99.99,,,0.00,Acu-Link.com,2013-10-02 15:58:00,
2013-10-02 12:14:00,79.7,63.1,29.98,NNW,337,3.2,-999.0,57,-99.99,,,0.00,Acu-Link.com,2013-10-02 16:14:00,
2013-10-02 12:29:00,80.1,63.0,29.97,West,270,2.2,-999.0,56,-99.99,,,0.00,Acu-Link.com,2013-10-02 16:29:00,
2013-10-02 12:44:00,80.8,62.6,29.97,NNW,337,0.0,-999.0,54,-99.99,,,0.00,Acu-Link.com,2013-10-02 16:44:00,
2013-10-02 12:59:00,81.3,62.0,29.97,North,0,1.1,-999.0,52,-99.99,,,0.00,Acu-Link.com,2013-10-02 16:59:00,
2013-10-02 13:15:00,81.9,62.5,29.96,SE,135,1.7,-999.0,52,-99.99,,,0.00,Acu-Link.com,2013-10-02 17:15:00,
2013-10-02 13:30:00,82.0,60.9,29.95,ESE,112,2.2,-999.0,49,-99.99,,,0.00,Acu-Link.com,2013-10-02 17:30:00,
2013-10-02 13:45:00,81.7,60.7,29.95,NW,315,4.7,-999.0,49,-99.99,,,0.00,Acu-Link.com,2013-10-02 17:45:00,
2013-10-02 14:00:00,82.2,61.7,29.94,ESE,112,4.2,-999.0,50,-99.99,,,0.00,Acu-Link.com,2013-10-02 18:00:00,
2013-10-02 14:15:00,82.2,61.1,29.94,SSE,157,2.2,-999.0,49,-99.99,,,0.00,Acu-Link.com,2013-10-02 18:15:00,
2013-10-02 14:31:00,82.8,62.2,29.93,SSE,157,2.7,-999.0,50,-99.99,,,0.00,Acu-Link.com,2013-10-02 18:31:00,
2013-10-02 14:48:00,82.9,61.8,29.93,West,270,3.7,-999.0,49,-99.99,,,0.00,Acu-Link.com,2013-10-02 18:48:00,
2013-10-02 15:03:00,87.1,62.5,29.93,South,180,0.0,-999.0,44,-99.99,,,0.00,Acu-Link.com,2013-10-02 19:03:00,
2013-10-02 15:19:00,85.3,61.5,29.92,North,0,3.2,-999.0,45,-99.99,,,0.00,Acu-Link.com,2013-10-02 19:19:00,
2013-10-02 15:34:00,83.7,61.3,29.92,NE,45,1.7,-999.0,47,-99.99,,,0.00,Acu-Link.com,2013-10-02 19:34:00,
2013-10-02 15:49:00,82.9,61.8,29.92,WNW,292,2.2,-999.0,49,-99.99,,,0.00,Acu-Link.com,2013-10-02 19:49:00,
2013-10-02 16:04:00,83.1,60.8,29.92,North,0,2.2,-999.0,47,-99.99,,,0.00,Acu-Link.com,2013-10-02 20:04:00,
2013-10-02 16:19:00,83.5,61.1,29.92,WNW,292,3.2,-999.0,47,-99.99,,,0.00,Acu-Link.com,2013-10-02 20:19:00,
2013-10-02 16:35:00,83.1,60.8,29.91,NE,45,2.7,-999.0,47,-99.99,,,0.00,Acu-Link.com,2013-10-02 20:35:00,
2013-10-02 16:50:00,84.2,59.9,29.91,WSW,247,1.7,-999.0,44,-99.99,,,0.00,Acu-Link.com,2013-10-02 20:50:00,
2013-10-02 17:05:00,84.7,61.0,29.92,NNE,22,1.1,-999.0,45,-99.99,,,0.00,Acu-Link.com,2013-10-02 21:05:00,
2013-10-02 17:20:00,83.5,61.7,29.91,West,270,2.7,-999.0,48,-99.99,,,0.00,Acu-Link.com,2013-10-02 21:20:00,
2013-10-02 17:36:00,82.4,61.9,29.91,NW,315,0.0,-999.0,50,-99.99,,,0.00,Acu-Link.com,2013-10-02 21:36:00,
2013-10-02 17:51:00,82.6,62.6,29.92,NE,45,0.0,-999.0,51,-99.99,,,0.00,Acu-Link.com,2013-10-02 21:51:00,
2013-10-02 18:06:00,85.1,64.3,29.92,WSW,247,0.0,-999.0,50,-99.99,,,0.00,Acu-Link.com,2013-10-02 22:06:00,
2013-10-02 18:21:00,81.9,65.6,29.92,West,270,0.0,-999.0,58,-99.99,,,0.00,Acu-Link.com,2013-10-02 22:21:00,
2013-10-02 18:36:00,77.7,66.7,29.92,South,180,0.0,-999.0,69,-99.99,,,0.00,Acu-Link.com,2013-10-02 22:36:00,
2013-10-02 18:52:00,74.5,66.0,29.93,South,180,0.0,-999.0,75,-99.99,,,0.00,Acu-Link.com,2013-10-02 22:52:00,
2013-10-02 19:07:00,72.5,66.3,29.93,SSW,202,0.0,-999.0,81,-99.99,,,0.00,Acu-Link.com,2013-10-02 23:07:00,
2013-10-02 19:22:00,70.5,65.8,29.94,SSW,202,0.0,-999.0,85,-99.99,,,0.00,Acu-Link.com,2013-10-02 23:22:00,
2013-10-02 19:37:00,69.1,65.4,29.94,SSW,202,0.0,-999.0,88,-99.99,,,0.00,Acu-Link.com,2013-10-02 23:37:00,
2013-10-02 19:52:00,67.8,64.8,29.94,SSW,202,0.0,-999.0,90,-99.99,,,0.00,Acu-Link.com,2013-10-02 23:52:00,
2013-10-02 20:08:00,66.9,64.8,29.95,SSW,202,0.0,-999.0,93,-99.99,,,0.00,Acu-Link.com,2013-10-03 00:08:00,
2013-10-02 20:23:00,65.8,63.4,29.95,South,180,0.0,-999.0,92,-99.99,,,0.00,Acu-Link.com,2013-10-03 00:23:00,
2013-10-02 20:38:00,65.1,63.3,29.95,South,180,0.0,-999.0,94,-99.99,,,0.00,Acu-Link.com,2013-10-03 00:38:00,
2013-10-02 20:53:00,64.4,63.2,29.96,South,180,0.0,-999.0,96,-99.99,,,0.00,Acu-Link.com,2013-10-03 00:53:00,
2013-10-02 21:08:00,63.7,62.5,29.95,South,180,0.0,-999.0,96,-99.99,,,0.00,Acu-Link.com,2013-10-03 01:08:00,
2013-10-02 21:24:00,63.0,61.5,29.96,South,180,0.0,-999.0,95,-99.99,,,0.00,Acu-Link.com,2013-10-03 01:24:00,
2013-10-02 21:39:00,62.6,61.7,29.96,South,180,0.0,-999.0,97,-99.99,,,0.00,Acu-Link.com,2013-10-03 01:39:00,
2013-10-02 21:54:00,62.1,61.2,29.96,South,180,0.0,-999.0,97,-99.99,,,0.00,Acu-Link.com,2013-10-03 01:54:00,
2013-10-02 22:09:00,61.7,61.1,29.96,South,180,0.0,-999.0,98,-99.99,,,0.00,Acu-Link.com,2013-10-03 02:09:00,
2013-10-02 22:24:00,61.2,60.6,29.96,South,180,0.0,-999.0,98,-99.99,,,0.00,Acu-Link.com,2013-10-03 02:24:00,
2013-10-02 22:40:00,61.0,60.7,29.97,South,180,0.0,-999.0,99,-99.99,,,0.00,Acu-Link.com,2013-10-03 02:40:00,
2013-10-02 22:55:00,60.4,60.1,29.97,South,180,0.0,-999.0,99,-99.99,,,0.00,Acu-Link.com,2013-10-03 02:55:00,
2013-10-02 23:10:00,60.1,59.5,29.97,South,180,0.0,-999.0,98,-99.99,,,0.00,Acu-Link.com,2013-10-03 03:10:00,
2013-10-02 23:25:00,59.7,59.4,29.97,South,180,0.0,-999.0,99,-99.99,,,0.00,Acu-Link.com,2013-10-03 03:25:00,
2013-10-02 23:41:00,59.4,59.1,29.97,South,180,0.0,-999.0,99,-99.99,,,0.00,Acu-Link.com,2013-10-03 03:41:00,
2013-10-02 23:56:00,59.2,58.9,29.96,South,180,0.0,-999.0,99,-99.99,,,0.00,Acu-Link.com,2013-10-03 03:56:00,